Time;durP1;ratioP1;P1;durP2;ratioP2;P2;SDS_P1;SDS_P2;PMS_P1;PMS_P2;Temp;Humidity;BMP_temperature;BMP_pressure;BME280_temperature;BME280_humidity;BME280_pressure;Samples;Min_cycle;Max_cycle;Signal;HPM_P1;HPM_P2
2023/05/02 00:01:27;;;;;;;30.92;19.75;;;;;;;10.52;100.00;101834.41;5302779;27;20031;-68
2023/05/02 00:03:59;;;;;;;29.17;19.17;;;;;;;10.52;100.00;101841.56;5283781;27;20526;-68
2023/05/02 00:06:30;;;;;;;30.38;18.77;;;;;;;10.51;100.00;101834.53;5269705;28;20031;-68
2023/05/02 00:09:02;;;;;;;31.27;19.15;;;;;;;10.54;100.00;101847.66;5270642;28;20417;-68
2023/05/02 00:11:33;;;;;;;31.50;19.77;;;;;;;10.51;100.00;101842.53;5277647;28;20368;-68
2023/05/02 00:14:05;;;;;;;30.48;19.40;;;;;;;10.56;100.00;101848.44;5270008;28;20373;-68
2023/05/02 00:16:36;;;;;;;33.58;20.17;;;;;;;10.58;100.00;101857.19;5266018;28;20093;-68
2023/05/02 00:19:08;;;;;;;33.97;20.08;;;;;;;10.57;100.00;101858.16;5269599;28;20364;-68
2023/05/02 00:21:39;;;;;;;34.35;20.90;;;;;;;10.59;100.00;101866.94;5268105;28;20448;-68
2023/05/02 00:24:10;;;;;;;31.50;20.23;;;;;;;10.58;100.00;101859.88;5270975;28;20040;-68
2023/05/02 00:26:42;;;;;;;33.25;20.45;;;;;;;10.59;100.00;101859.78;5275821;28;20047;-68
2023/05/02 00:29:13;;;;;;;32.50;21.13;;;;;;;10.58;100.00;101862.53;5273966;28;20033;-68
2023/05/02 00:31:44;;;;;;;33.63;20.50;;;;;;;10.59;100.00;101873.13;5269221;28;20054;-68
2023/05/02 00:34:16;;;;;;;31.08;19.75;;;;;;;10.59;100.00;101866.94;5271302;28;20036;-68
2023/05/02 00:36:47;;;;;;;34.28;20.42;;;;;;;10.59;100.00;101882.94;5272775;28;20035;-68
2023/05/02 00:39:18;;;;;;;34.88;21.17;;;;;;;10.58;100.00;101875.88;5258315;28;20053;-68
2023/05/02 00:41:57;;;;;;;31.20;19.73;;;;;;;10.57;100.00;101872.34;5256236;28;20544;-68
2023/05/02 00:44:29;;;;;;;31.65;20.15;;;;;;;10.56;100.00;101873.28;5258454;28;20047;-68
2023/05/02 00:47:00;;;;;;;33.05;20.02;;;;;;;10.54;100.00;101869.00;5258841;28;20044;-68
2023/05/02 00:49:32;;;;;;;32.72;20.00;;;;;;;10.53;100.00;101873.50;5258295;28;20032;-68
2023/05/02 00:52:03;;;;;;;31.88;19.42;;;;;;;10.53;100.00;101878.84;5259260;28;20087;-68
2023/05/02 00:54:37;;;;;;;27.30;18.55;;;;;;;10.51;100.00;101883.41;5264081;28;20040;-68
2023/05/02 00:57:09;;;;;;;;;;;;;;;10.57;100.00;101888.38;5264359;28;20153;-68
2023/05/02 00:59:40;;;;;;;25.35;15.73;;;;;;;10.49;100.00;101881.75;5261238;28;20350;-68
2023/05/02 01:02:50;;;;;;;26.55;16.13;;;;;;;10.49;100.00;101887.09;5259805;28;20100;-68
2023/05/02 01:05:33;;;;;;;25.48;15.48;;;;;;;10.43;100.00;101877.63;5255334;28;20380;-68
2023/05/02 01:08:47;;;;;;;24.80;14.98;;;;;;;10.44;100.00;101891.88;5262707;28;20044;-68
2023/05/02 01:11:50;;;;;;;29.95;16.65;;;;;;;10.41;100.00;101882.22;5256435;28;20036;-68
2023/05/02 01:14:24;;;;;;;25.27;14.90;;;;;;;10.34;100.00;101888.88;5265789;28;20040;-68
2023/05/02 01:16:58;;;;;;;25.60;14.68;;;;;;;10.30;100.00;101888.19;5260305;28;20033;-68
2023/05/02 01:19:34;;;;;;;22.37;14.57;;;;;;;10.26;100.00;101886.63;5255227;28;20538;-67
2023/05/02 01:22:08;;;;;;;21.88;13.68;;;;;;;10.20;100.00;101887.84;5257856;28;20381;-68
2023/05/02 01:24:52;;;;;;;20.83;12.43;;;;;;;10.14;100.00;101882.00;5256153;28;20114;-68
2023/05/02 01:27:46;;;;;;;18.00;10.90;;;;;;;10.08;100.00;101877.88;5258461;28;20425;-67
2023/05/02 01:30:19;;;;;;;16.95;10.63;;;;;;;9.96;100.00;101874.13;5258504;28;20123;-68
2023/05/02 01:32:52;;;;;;;19.85;11.18;;;;;;;9.92;100.00;101883.25;5257946;28;20039;-68
2023/05/02 01:35:26;;;;;;;17.33;11.50;;;;;;;9.93;100.00;101882.31;5256363;28;20029;-68
2023/05/02 01:38:00;;;;;;;20.15;11.30;;;;;;;9.92;100.00;101880.56;5257376;28;20095;-68
2023/05/02 01:40:33;;;;;;;19.58;10.95;;;;;;;9.92;100.00;101880.56;5265345;28;20036;-68
2023/05/02 01:43:06;;;;;;;17.42;11.05;;;;;;;9.93;100.00;101881.41;5267257;28;20056;-69
2023/05/02 01:45:38;;;;;;;17.27;11.55;;;;;;;9.92;100.00;101885.91;5264411;28;20116;-68
2023/05/02 01:48:11;;;;;;;19.38;11.80;;;;;;;9.89;100.00;101888.72;5258772;28;20036;-68
2023/05/02 01:50:45;;;;;;;21.50;12.27;;;;;;;9.88;100.00;101887.03;5258632;28;20044;-68
2023/05/02 01:53:17;;;;;;;18.90;11.00;;;;;;;9.89;100.00;101890.53;5258557;28;20074;-68
2023/05/02 01:55:51;;;;;;;18.65;11.48;;;;;;;9.86;100.00;101888.94;5256549;28;20112;-68
2023/05/02 01:58:26;;;;;;;19.00;11.95;;;;;;;9.88;100.00;101896.84;5257390;28;20063;-68
2023/05/02 02:01:00;;;;;;;22.85;11.68;;;;;;;9.84;100.00;101903.25;5254091;28;20032;-68
2023/05/02 02:03:31;;;;;;;;;;;;;;;9.92;100.00;101901.03;5270975;28;20074;-68
2023/05/02 02:06:05;;;;;;;19.30;10.45;;;;;;;9.87;100.00;101905.78;5298553;27;19915;-68
2023/05/02 02:08:36;;;;;;;21.10;11.67;;;;;;;9.87;100.00;101911.94;5297621;27;20028;-69
2023/05/02 02:11:10;;;;;;;17.75;11.55;;;;;;;9.87;100.00;101925.28;5294629;28;20050;-68
2023/05/02 02:13:51;;;;;;;19.88;12.32;;;;;;;9.85;100.00;101926.31;5300031;27;20036;-68
2023/05/02 02:16:29;;;;;;;18.73;11.63;;;;;;;9.83;100.00;101918.41;5297232;27;20519;-68
2023/05/02 02:19:06;;;;;;;22.38;12.52;;;;;;;9.84;100.00;101928.13;5295224;27;20023;-68
2023/05/02 02:21:39;;;;;;;20.33;12.15;;;;;;;9.85;100.00;101929.84;5297952;28;20028;-68
2023/05/02 02:24:12;;;;;;;20.15;12.00;;;;;;;9.87;100.00;101929.75;5296090;27;20489;-68
2023/05/02 02:26:45;;;;;;;17.65;12.00;;;;;;;9.86;100.00;101936.06;5296352;27;20028;-68
2023/05/02 02:29:16;;;;;;;18.58;12.00;;;;;;;9.85;100.00;101934.31;5298108;27;20028;-68
2023/05/02 02:31:48;;;;;;;19.67;12.27;;;;;;;9.80;100.00;101926.59;5296419;28;20547;-68
2023/05/02 02:34:20;;;;;;;23.00;12.77;;;;;;;9.81;100.00;101938.97;5301214;27;20035;-68
2023/05/02 02:36:59;;;;;;;19.60;13.10;;;;;;;9.82;100.00;101935.38;5296554;27;20028;-68
2023/05/02 02:40:12;;;;;;;20.02;12.80;;;;;;;9.82;100.00;101941.53;5297720;27;20466;-68
2023/05/02 02:42:53;;;;;;;20.95;12.70;;;;;;;9.80;100.00;101946.09;5296271;27;20176;-68
2023/05/02 02:45:53;;;;;;;18.92;12.93;;;;;;;9.83;100.00;101950.41;5294811;27;20061;-68
2023/05/02 02:48:34;;;;;;;22.90;14.38;;;;;;;9.80;100.00;101943.44;5294170;27;20139;-68
2023/05/02 02:51:14;;;;;;;20.65;13.35;;;;;;;9.82;100.00;101954.03;5296258;27;20024;-68
2023/05/02 02:54:00;;;;;;;20.67;13.25;;;;;;;9.84;100.00;101945.91;5296680;27;20036;-68
2023/05/02 02:56:45;;;;;;;21.98;13.68;;;;;;;9.87;100.00;101953.75;5297822;27;20121;-68
2023/05/02 02:59:25;;;;;;;;;;;;;;;9.94;100.00;101960.47;5290754;28;20077;-68
2023/05/02 03:02:13;;;;;;;21.33;13.05;;;;;;;9.85;100.00;101956.50;5298043;27;19915;-68
2023/05/02 03:04:46;;;;;;;21.15;14.02;;;;;;;9.85;100.00;101959.16;5256185;28;20051;-68
2023/05/02 03:07:17;;;;;;;19.80;13.23;;;;;;;9.84;100.00;101960.13;5252617;28;20586;-68
2023/05/02 03:09:48;;;;;;;22.05;14.07;;;;;;;9.83;100.00;101961.06;5254169;28;21327;-68
2023/05/02 03:12:20;;;;;;;21.88;13.48;;;;;;;9.87;100.00;101972.41;5254513;28;20107;-68
2023/05/02 03:14:52;;;;;;;18.60;11.93;;;;;;;9.88;100.00;101976.81;5256847;28;20817;-68
2023/05/02 03:17:23;;;;;;;19.27;12.63;;;;;;;9.89;100.00;101979.38;5257142;28;20455;-68
2023/05/02 03:19:56;;;;;;;20.67;12.65;;;;;;;9.89;100.00;101975.84;5254674;28;20027;-68
2023/05/02 03:22:27;;;;;;;17.10;11.98;;;;;;;9.92;100.00;101986.34;5255436;28;20351;-68
2023/05/02 03:24:59;;;;;;;17.17;11.60;;;;;;;9.90;100.00;101985.59;5254788;28;20577;-68
2023/05/02 03:27:30;;;;;;;19.83;11.88;;;;;;;9.90;100.00;101989.09;5254324;28;20032;-68
2023/05/02 03:30:02;;;;;;;18.90;12.13;;;;;;;9.89;100.00;101986.50;5252108;28;20052;-68
2023/05/02 03:32:33;;;;;;;19.98;12.07;;;;;;;9.88;100.00;101990.16;5256877;28;20494;-68
2023/05/02 03:35:05;;;;;;;18.88;11.05;;;;;;;9.88;100.00;101996.31;5268007;28;20649;-68
2023/05/02 03:37:36;;;;;;;20.17;12.02;;;;;;;9.89;100.00;101990.03;5263087;28;20021;-68
2023/05/02 03:40:08;;;;;;;25.90;12.10;;;;;;;9.88;100.00;101987.47;5272440;28;20020;-68
2023/05/02 03:42:40;;;;;;;20.98;13.30;;;;;;;9.85;100.00;101991.16;5259077;28;20493;-68
2023/05/02 03:45:12;;;;;;;18.98;12.55;;;;;;;9.84;100.00;102008.09;5267191;28;20024;-68
2023/05/02 03:47:43;;;;;;;19.58;13.30;;;;;;;9.79;100.00;101996.81;5264196;28;20074;-68
2023/05/02 03:50:15;;;;;;;21.17;12.23;;;;;;;9.81;100.00;101990.44;5269204;28;20020;-69
2023/05/02 03:52:46;;;;;;;21.20;12.25;;;;;;;9.86;100.00;101998.22;5266063;28;20024;-68
2023/05/02 03:55:18;;;;;;;18.98;12.52;;;;;;;9.86;100.00;102008.88;5268787;28;20833;-68
2023/05/02 03:57:49;;;;;;;18.75;11.40;;;;;;;9.85;100.00;102004.47;5266519;28;20016;-68
2023/05/02 04:00:21;;;;;;;17.60;10.73;;;;;;;9.87;100.00;102018.59;5263641;28;20028;-68
2023/05/02 04:02:53;;;;;;;14.93;9.43;;;;;;;9.84;100.00;102021.44;5264238;28;20040;-67
2023/05/02 04:05:24;;;;;;;15.93;10.38;;;;;;;9.87;100.00;102023.06;5262485;28;20078;-68
2023/05/02 04:07:56;;;;;;;17.88;10.07;;;;;;;9.85;100.00;102020.47;5262364;28;20070;-68
2023/05/02 04:10:27;;;;;;;17.75;10.65;;;;;;;9.82;100.00;102032.16;5262872;28;20048;-68
2023/05/02 04:13:01;;;;;;;16.45;9.13;;;;;;;9.81;100.00;102026.91;5265185;28;20549;-68
2023/05/02 04:15:33;;;;;;;15.38;8.50;;;;;;;9.79;100.00;102029.66;5263081;28;20545;-68
2023/05/02 04:18:04;;;;;;;15.57;7.40;;;;;;;9.77;100.00;102033.38;5262910;28;20020;-68
2023/05/02 04:20:35;;;;;;;14.38;7.50;;;;;;;9.74;100.00;102031.75;5261440;28;20078;-68
2023/05/02 04:23:07;;;;;;;15.02;7.13;;;;;;;9.69;100.00;102032.94;5264444;28;20025;-68
2023/05/02 04:25:38;;;;;;;15.02;7.32;;;;;;;9.71;100.00;102037.22;5261250;28;20025;-68
2023/05/02 04:28:10;;;;;;;12.30;6.72;;;;;;;9.71;100.00;102053.22;5265270;28;20115;-68
2023/05/02 04:30:41;;;;;;;15.35;6.40;;;;;;;9.74;100.00;102060.16;5264022;28;20029;-68
2023/05/02 04:33:12;;;;;;;12.30;6.35;;;;;;;9.72;100.00;102051.41;5266429;28;20028;-68
2023/05/02 04:35:44;;;;;;;12.32;6.20;;;;;;;9.72;100.00;102065.59;5255389;28;20108;-68
2023/05/02 04:38:16;;;;;;;9.40;3.88;;;;;;;9.69;100.00;102071.09;5269372;28;20028;-68
2023/05/02 04:40:51;;;;;;;12.77;2.83;;;;;;;9.64;100.00;102073.13;5254954;28;20017;-68
2023/05/02 04:43:22;;;;;;;8.68;2.28;;;;;;;9.59;100.00;102068.06;5259200;28;20097;-68
2023/05/02 04:45:54;;;;;;;7.45;2.40;;;;;;;9.54;100.00;102071.91;5255560;28;20438;-69
2023/05/02 04:48:26;;;;;;;4.53;1.90;;;;;;;9.53;100.00;102076.38;5256699;28;20039;-68
2023/05/02 04:50:57;;;;;;;7.53;2.30;;;;;;;9.54;100.00;102082.56;5249238;28;20414;-68
2023/05/02 04:53:28;;;;;;;7.72;2.65;;;;;;;9.54;100.00;102095.88;5249865;28;20577;-68
2023/05/02 04:56:00;;;;;;;6.80;1.73;;;;;;;9.51;100.00;102101.34;5255930;28;20033;-68
2023/05/02 04:58:31;;;;;;;6.50;1.92;;;;;;;9.53;100.00;102110.13;5255931;28;20581;-68
2023/05/02 05:01:03;;;;;;;6.18;1.85;;;;;;;9.48;100.00;102102.38;5254935;28;20489;-68
2023/05/02 05:03:34;;;;;;;6.50;2.00;;;;;;;9.47;100.00;102100.66;5251574;28;20048;-68
2023/05/02 05:06:06;;;;;;;6.38;1.70;;;;;;;9.44;100.00;102102.63;5252805;28;20383;-68
2023/05/02 05:08:37;;;;;;;4.90;1.40;;;;;;;9.45;100.00;102115.84;5255262;28;20036;-68
2023/05/02 05:11:08;;;;;;;6.43;1.80;;;;;;;9.42;100.00;102116.88;5255693;28;20029;-68
2023/05/02 05:13:40;;;;;;;8.52;2.08;;;;;;;9.42;100.00;102116.88;5252761;28;20028;-68
2023/05/02 05:16:12;;;;;;;5.72;1.80;;;;;;;9.42;100.00;102119.53;5254260;28;20086;-68
2023/05/02 05:18:43;;;;;;;7.68;2.05;;;;;;;9.42;100.00;102132.88;5254753;28;20331;-68
2023/05/02 05:21:15;;;;;;;6.53;2.05;;;;;;;9.38;100.00;102125.97;5251990;28;20025;-68
2023/05/02 05:23:47;;;;;;;8.00;1.95;;;;;;;9.39;100.00;102132.16;5252832;28;20016;-67
2023/05/02 05:26:19;;;;;;;6.05;1.70;;;;;;;9.35;100.00;102141.25;5250850;28;20032;-68
2023/05/02 05:28:51;;;;;;;8.95;2.00;;;;;;;9.39;100.00;102145.47;5253602;28;20423;-68
2023/05/02 05:31:23;;;;;;;8.27;2.20;;;;;;;9.40;100.00;102139.22;5255677;28;20256;-68
2023/05/02 05:33:54;;;;;;;6.30;1.80;;;;;;;9.44;100.00;102146.09;5254504;28;20053;-68
2023/05/02 05:36:26;;;;;;;8.65;1.75;;;;;;;9.46;100.00;102148.69;5254021;28;20038;-68
2023/05/02 05:38:58;;;;;;;8.30;2.00;;;;;;;9.47;100.00;102151.25;5257621;28;20033;-68
2023/05/02 05:41:29;;;;;;;5.72;1.98;;;;;;;9.49;100.00;102149.41;5259314;28;20025;-68
2023/05/02 05:44:00;;;;;;;5.57;2.00;;;;;;;9.50;100.00;102153.78;5271373;28;20090;-68
2023/05/02 05:46:32;;;;;;;8.48;1.95;;;;;;;9.50;100.00;102152.94;5260256;28;20028;-68
2023/05/02 05:49:03;;;;;;;8.70;2.20;;;;;;;9.50;100.00;102156.44;5261047;28;20467;-67
2023/05/02 05:51:35;;;;;;;5.75;1.80;;;;;;;9.49;100.00;102153.84;5268274;28;20456;-68
2023/05/02 05:54:06;;;;;;;7.55;2.10;;;;;;;9.49;100.00;102161.84;5275774;28;20032;-68
2023/05/02 05:56:37;;;;;;;4.25;1.75;;;;;;;9.47;100.00;102161.06;5253609;28;20043;-68
2023/05/02 05:59:09;;;;;;;5.55;2.08;;;;;;;9.48;100.00;102163.66;5256102;28;20021;-68
2023/05/02 06:01:41;;;;;;;4.93;1.98;;;;;;;9.50;100.00;102163.59;5252583;28;20082;-68
2023/05/02 06:04:12;;;;;;;8.70;2.20;;;;;;;9.52;100.00;102167.88;5252933;28;20079;-68
2023/05/02 06:06:44;;;;;;;5.25;1.95;;;;;;;9.57;100.00;102171.19;5258403;28;21935;-68
2023/05/02 06:09:15;;;;;;;5.75;2.47;;;;;;;9.64;100.00;102177.06;5259687;28;20025;-68
2023/05/02 06:11:47;;;;;;;6.65;1.73;;;;;;;9.69;100.00;102188.34;5259579;28;20056;-68
2023/05/02 06:14:18;;;;;;;8.10;1.75;;;;;;;9.75;100.00;102189.84;5258949;28;20460;-68
2023/05/02 06:16:50;;;;;;;6.18;1.88;;;;;;;9.85;100.00;102187.56;5251136;28;20044;-67
2023/05/02 06:19:21;;;;;;;6.07;1.40;;;;;;;9.85;100.00;102193.75;5254249;28;20516;-68
2023/05/02 06:21:52;;;;;;;6.50;1.55;;;;;;;9.87;100.00;102197.19;5256254;28;20059;-68
2023/05/02 06:24:24;;;;;;;5.53;1.65;;;;;;;9.85;100.00;102200.88;5258734;28;20119;-67
2023/05/02 06:26:55;;;;;;;5.65;1.77;;;;;;;9.88;100.00;102201.59;5259237;28;20036;-68
2023/05/02 06:29:27;;;;;;;7.65;1.80;;;;;;;9.84;100.00;102204.47;5264447;28;20027;-68
2023/05/02 06:31:58;;;;;;;7.85;1.80;;;;;;;9.88;100.00;102212.25;5257238;28;20757;-68
2023/05/02 06:34:32;;;;;;;9.60;2.28;;;;;;;9.92;100.00;102205.81;5262431;28;20112;-68
2023/05/02 06:37:03;;;;;;;10.38;2.25;;;;;;;9.93;100.00;102215.56;5262471;28;20031;-68
2023/05/02 06:39:35;;;;;;;6.03;1.98;;;;;;;9.91;100.00;102216.56;5263618;28;20024;-67
2023/05/02 06:42:06;;;;;;;7.30;1.73;;;;;;;9.99;100.00;102233.91;5261935;28;20059;-68
2023/05/02 06:44:38;;;;;;;9.00;1.92;;;;;;;9.98;100.00;102240.16;5262203;28;20042;-68
2023/05/02 06:47:09;;;;;;;10.27;1.85;;;;;;;10.01;100.00;102244.50;5269693;28;20119;-68
2023/05/02 06:49:41;;;;;;;9.27;1.80;;;;;;;10.11;100.00;102247.53;5271266;28;20332;-68
2023/05/02 06:52:12;;;;;;;6.63;2.08;;;;;;;10.21;100.00;102246.09;5270107;28;20024;-68
2023/05/02 06:54:43;;;;;;;7.85;1.85;;;;;;;10.28;100.00;102251.97;5273185;28;20395;-68
2023/05/02 06:57:15;;;;;;;9.02;2.47;;;;;;;10.37;100.00;102251.50;5266657;28;20402;-68
2023/05/02 06:59:46;;;;;;;6.75;1.98;;;;;;;10.49;100.00;102263.34;5269252;28;20332;-68
2023/05/02 07:02:17;;;;;;;5.50;2.10;;;;;;;10.52;100.00;102266.72;5267861;28;20032;-68
2023/05/02 07:04:49;;;;;;;12.23;2.30;;;;;;;10.58;100.00;102257.50;5311994;28;20043;-68
2023/05/02 07:07:21;;;;;;;11.68;2.25;;;;;;;10.65;100.00;102255.38;5311261;28;20453;-68
2023/05/02 07:09:52;;;;;;;10.05;2.50;;;;;;;10.66;100.00;102260.66;5312264;27;20035;-68
2023/05/02 07:12:24;;;;;;;8.75;2.00;;;;;;;10.79;100.00;102263.50;5309963;27;20082;-68
2023/05/02 07:14:56;;;;;;;8.45;2.50;;;;;;;10.94;100.00;102276.00;5309420;28;20035;-68
2023/05/02 07:17:27;;;;;;;8.43;2.30;;;;;;;10.96;100.00;102275.91;5312119;27;20080;-68
2023/05/02 07:19:59;;;;;;;8.25;2.10;;;;;;;10.95;100.00;102279.56;5301299;27;20026;-68
2023/05/02 07:22:30;;;;;;;8.68;2.85;;;;;;;10.98;100.00;102277.56;5304690;27;20024;-68
2023/05/02 07:25:02;;;;;;;9.63;2.40;;;;;;;11.05;100.00;102285.25;5313460;27;20031;-68
2023/05/02 07:27:34;;;;;;;9.75;2.35;;;;;;;11.03;100.00;102293.34;5308764;27;20042;-68
2023/05/02 07:30:05;;;;;;;9.10;2.60;;;;;;;11.06;100.00;102295.81;5313103;27;20039;-68
2023/05/02 07:32:37;;;;;;;10.13;3.13;;;;;;;11.01;100.00;102305.91;5309061;27;20404;-68
2023/05/02 07:35:08;;;;;;;10.00;2.45;;;;;;;10.91;100.00;102307.34;5308616;27;20043;-68
2023/05/02 07:37:40;;;;;;;11.27;2.67;;;;;;;10.77;100.00;102310.78;5306497;27;20382;-68
2023/05/02 07:40:11;;;;;;;7.85;2.08;;;;;;;10.70;100.00;102304.91;5312931;27;20059;-67
2023/05/02 07:42:43;;;;;;;6.05;1.98;;;;;;;10.85;100.00;102311.22;5309417;27;20100;-66
2023/05/02 07:45:14;;;;;;;11.82;2.25;;;;;;;10.89;100.00;102312.81;5312124;27;20358;-68
2023/05/02 07:47:46;;;;;;;10.07;2.78;;;;;;;11.04;100.00;102310.22;5307726;27;20108;-68
2023/05/02 07:50:17;;;;;;;9.27;2.28;;;;;;;11.05;100.00;102312.81;5308844;27;20031;-68
2023/05/02 07:52:48;;;;;;;9.38;2.75;;;;;;;11.08;100.00;102315.28;5311351;27;20392;-68
2023/05/02 07:55:20;;;;;;;11.40;2.83;;;;;;;11.09;100.00;102319.72;5311161;28;20076;-68
2023/05/02 07:57:52;;;;;;;11.02;2.38;;;;;;;11.02;100.00;102317.47;5307239;27;20031;-68
2023/05/02 08:00:23;;;;;;;8.63;2.60;;;;;;;10.95;100.00;102315.13;5310283;27;20048;-68
2023/05/02 08:02:55;;;;;;;9.02;2.53;;;;;;;10.83;100.00;102320.25;5291122;27;20044;-68
2023/05/02 08:05:26;;;;;;;10.25;2.83;;;;;;;10.81;100.00;102325.69;5261697;28;20570;-68
2023/05/02 08:08:00;;;;;;;12.15;3.05;;;;;;;10.76;100.00;102327.75;5268088;28;20432;-68
2023/05/02 08:10:32;;;;;;;10.90;3.17;;;;;;;10.66;100.00;102326.50;5263298;28;20035;-68
2023/05/02 08:13:03;;;;;;;10.20;3.22;;;;;;;10.62;100.00;102332.94;5265643;28;20021;-68
2023/05/02 08:15:34;;;;;;;12.10;3.30;;;;;;;10.53;100.00;102343.16;5275706;28;20138;-68
2023/05/02 08:18:06;;;;;;;8.77;2.70;;;;;;;10.53;100.00;102351.19;5269140;28;20453;-68
2023/05/02 08:20:38;;;;;;;8.52;2.75;;;;;;;10.47;100.00;102353.28;5257177;28;20104;-68
2023/05/02 08:23:09;;;;;;;10.55;3.40;;;;;;;10.49;100.00;102351.41;5273088;28;20036;-68
2023/05/02 08:25:41;;;;;;;9.27;2.55;;;;;;;10.50;100.00;102355.81;5261245;28;20044;-68
2023/05/02 08:28:12;;;;;;;9.88;2.22;;;;;;;10.48;100.00;102361.22;5274133;28;20050;-68
2023/05/02 08:30:44;;;;;;;7.13;2.35;;;;;;;10.51;100.00;102358.41;5265288;28;20067;-68
2023/05/02 08:33:15;;;;;;;9.20;2.40;;;;;;;10.53;100.00;102369.84;5271679;28;20021;-68
2023/05/02 08:35:47;;;;;;;8.25;2.90;;;;;;;10.57;100.00;102370.56;5269707;28;20115;-68
2023/05/02 08:38:18;;;;;;;9.18;2.47;;;;;;;10.59;100.00;102379.34;5258207;28;20097;-68
2023/05/02 08:40:50;;;;;;;8.50;2.40;;;;;;;10.71;100.00;102373.38;5257909;28;20071;-68
2023/05/02 08:43:22;;;;;;;7.78;2.30;;;;;;;10.81;100.00;102371.06;5256882;28;20100;-69
2023/05/02 08:45:58;;;;;;;7.22;2.25;;;;;;;10.87;100.00;102372.56;5268467;28;20021;-68
2023/05/02 08:48:31;;;;;;;8.15;2.30;;;;;;;10.91;100.00;102377.66;5272098;28;20098;-68
2023/05/02 08:51:03;;;;;;;8.03;2.43;;;;;;;10.92;100.00;102381.19;5285282;28;20021;-68
2023/05/02 08:53:36;;;;;;;7.32;2.75;;;;;;;11.09;100.00;102382.97;5276517;28;20035;-68
2023/05/02 08:56:10;;;;;;;6.30;2.35;;;;;;;11.16;100.00;102389.66;5273601;28;20056;-68
2023/05/02 08:58:41;;;;;;;8.93;2.05;;;;;;;11.30;100.00;102387.13;5280745;28;20493;-69
2023/05/02 09:01:18;;;;;;;9.85;2.35;;;;;;;11.38;100.00;102392.91;5264129;28;20033;-68
2023/05/02 09:03:51;;;;;;;7.75;2.35;;;;;;;11.43;100.00;102398.00;5264835;28;20501;-68
2023/05/02 09:06:22;;;;;;;5.88;2.40;;;;;;;11.50;100.00;102385.16;5268217;28;20035;-68
2023/05/02 09:08:54;;;;;;;6.18;2.40;;;;;;;11.48;100.00;102392.41;5264524;28;20490;-68
2023/05/02 09:11:25;;;;;;;9.18;2.70;;;;;;;11.54;100.00;102395.63;5276654;28;20166;-68
2023/05/02 09:14:02;;;;;;;8.98;2.60;;;;;;;11.65;100.00;102407.50;5275882;28;20073;-68
2023/05/02 09:16:38;;;;;;;9.43;2.70;;;;;;;11.81;100.00;102403.00;5267878;28;20044;-68
2023/05/02 09:19:10;;;;;;;7.15;2.40;;;;;;;11.84;100.00;102397.50;5268621;28;20116;-68
2023/05/02 09:21:42;;;;;;;7.80;1.95;;;;;;;11.91;100.00;102403.41;5270698;28;20480;-68
2023/05/02 09:24:21;;;;;;;8.30;2.60;;;;;;;11.92;100.00;102408.63;5272326;28;20043;-68
2023/05/02 09:27:02;;;;;;;6.53;2.00;;;;;;;11.91;100.00;102409.59;5256294;28;20352;-68
2023/05/02 09:29:37;;;;;;;6.97;2.22;;;;;;;12.05;100.00;102411.47;5274358;28;20486;-68
2023/05/02 09:32:09;;;;;;;9.15;2.17;;;;;;;12.13;100.00;102406.53;5264538;28;20553;-68
2023/05/02 09:35:06;;;;;;;9.90;2.50;;;;;;;12.22;100.00;102406.97;5264937;28;20036;-68
2023/05/02 09:37:37;;;;;;;9.35;2.20;;;;;;;12.15;100.00;102422.50;5262094;28;20028;-68
2023/05/02 09:40:09;;;;;;;9.05;2.28;;;;;;;12.09;100.00;102422.88;5270992;28;20029;-68
2023/05/02 09:42:41;;;;;;;7.53;2.40;;;;;;;12.06;100.00;102428.38;5279392;28;20364;-68
2023/05/02 09:45:23;;;;;;;7.78;1.98;;;;;;;11.99;100.00;102429.72;5279968;28;20550;-68
2023/05/02 09:48:00;;;;;;;7.15;2.13;;;;;;;11.99;100.00;102425.22;5272934;28;20035;-68
2023/05/02 09:50:33;;;;;;;8.80;2.40;;;;;;;12.05;100.00;102429.34;5275099;28;20047;-68
2023/05/02 09:53:08;;;;;;;9.65;2.10;;;;;;;12.12;100.00;102430.72;5272600;28;20060;-68
2023/05/02 09:55:39;;;;;;;7.20;2.63;;;;;;;12.31;100.00;102431.38;5258667;28;20413;-68
2023/05/02 09:58:22;;;;;;;8.60;2.30;;;;;;;12.53;100.00;102424.75;5271213;28;20081;-68
2023/05/02 10:00:54;;;;;;;7.93;2.38;;;;;;;12.54;100.00;102432.69;5267861;28;20391;-68
2023/05/02 10:03:27;;;;;;;10.32;2.30;;;;;;;12.63;100.00;102433.94;5275056;28;20049;-68
2023/05/02 10:05:58;;;;;;;7.82;2.25;;;;;;;12.67;100.00;102430.13;5275738;28;20032;-68
2023/05/02 10:08:34;;;;;;;5.82;2.20;;;;;;;12.75;100.00;102435.03;5263790;28;20025;-68
2023/05/02 10:11:07;;;;;;;7.80;2.15;;;;;;;12.87;100.00;102438.81;5268759;28;20057;-68
2023/05/02 10:13:41;;;;;;;6.80;2.08;;;;;;;12.98;100.00;102438.13;5262960;28;20421;-68
2023/05/02 10:16:19;;;;;;;5.57;2.00;;;;;;;13.00;100.00;102442.47;5261828;28;20098;-68
2023/05/02 10:19:01;;;;;;;7.05;2.45;;;;;;;13.14;100.00;102434.41;5271220;28;20025;-69
2023/05/02 10:21:33;;;;;;;8.73;2.67;;;;;;;13.27;100.00;102439.00;5270190;28;20514;-68
2023/05/02 10:24:05;;;;;;;7.85;2.30;;;;;;;13.30;100.00;102438.84;5270904;28;20052;-68
2023/05/02 10:26:37;;;;;;;7.70;2.92;;;;;;;13.22;100.00;102441.97;5275768;28;20489;-68
2023/05/02 10:29:10;;;;;;;8.68;2.72;;;;;;;13.08;100.00;102434.81;5263984;28;20426;-69
2023/05/02 10:31:44;;;;;;;8.90;2.97;;;;;;;13.08;100.00;102448.22;5281031;28;20490;-68
2023/05/02 10:34:17;;;;;;;6.65;2.60;;;;;;;13.05;100.00;102447.53;5283819;28;20056;-69
2023/05/02 10:36:48;;;;;;;9.85;2.65;;;;;;;13.08;100.00;102452.72;5263535;28;20029;-69
2023/05/02 10:39:23;;;;;;;7.00;2.33;;;;;;;13.07;100.00;102454.50;5266321;28;20017;-69
2023/05/02 10:41:57;;;;;;;7.60;2.80;;;;;;;12.93;100.00;102459.88;5264489;28;20107;-68
2023/05/02 10:44:36;;;;;;;8.23;2.40;;;;;;;13.00;100.00;102458.53;5273548;28;20063;-68
2023/05/02 10:47:18;;;;;;;7.47;2.35;;;;;;;12.86;100.00;102451.31;5261294;28;20043;-68
2023/05/02 10:49:58;;;;;;;8.20;2.42;;;;;;;12.74;100.00;102452.06;5259291;28;20112;-68
2023/05/02 10:52:37;;;;;;;10.02;2.60;;;;;;;12.66;100.00;102449.84;5275354;28;20029;-68
2023/05/02 10:55:24;;;;;;;7.88;2.47;;;;;;;12.74;100.00;102452.06;5276162;28;20086;-68
2023/05/02 10:58:04;;;;;;;7.28;2.58;;;;;;;12.76;100.00;102458.19;5266172;28;20150;-68
2023/05/02 11:00:35;;;;;;;6.07;2.30;;;;;;;12.92;100.00;102458.13;5277408;28;20032;-68
2023/05/02 11:03:07;;;;;;;8.02;2.88;;;;;;;12.96;100.00;102459.66;5264479;28;20522;-68
2023/05/02 11:06:06;;;;;;;6.32;2.38;;;;;;;13.08;100.00;102466.13;5272975;28;20059;-69
2023/05/02 11:08:37;;;;;;;7.22;2.30;;;;;;;13.20;100.00;102459.13;5275094;28;20040;-68
2023/05/02 11:11:36;;;;;;;8.75;2.60;;;;;;;13.22;100.00;102458.06;5281997;28;20041;-68
2023/05/02 11:14:09;;;;;;;6.30;2.70;;;;;;;13.27;100.00;102455.09;5266291;28;20021;-68
2023/05/02 11:16:56;;;;;;;8.18;2.10;;;;;;;13.30;100.00;102460.31;5264411;28;20029;-68
2023/05/02 11:19:54;;;;;;;7.50;2.50;;;;;;;13.37;100.00;102460.81;5272863;28;20039;-68
2023/05/02 11:22:32;;;;;;;8.20;2.20;;;;;;;13.55;100.00;102462.31;5284354;28;20028;-68
2023/05/02 11:25:04;;;;;;;5.70;2.15;;;;;;;13.60;100.00;102457.53;5266082;28;20036;-68
2023/05/02 11:27:40;;;;;;;9.23;2.45;;;;;;;13.67;100.00;102472.28;5266648;28;20038;-68
2023/05/02 11:30:12;;;;;;;6.68;2.55;;;;;;;13.55;100.00;102472.19;5264025;28;20036;-68
2023/05/02 11:32:48;;;;;;;8.50;2.95;;;;;;;13.49;100.00;102470.75;5272572;28;20024;-68
2023/05/02 11:35:25;;;;;;;6.63;2.20;;;;;;;13.31;100.00;102464.72;5269301;28;20060;-68
2023/05/02 11:37:57;;;;;;;9.63;2.65;;;;;;;13.28;100.00;102470.22;5274048;28;20063;-68
2023/05/02 11:40:30;;;;;;;8.60;2.67;;;;;;;13.30;100.00;102460.31;5274607;28;20036;-68
2023/05/02 11:43:15;;;;;;;6.57;2.40;;;;;;;13.47;100.00;102451.22;5277090;28;20029;-68
2023/05/02 11:45:46;;;;;;;6.85;2.47;;;;;;;13.49;100.00;102460.00;5272344;28;20027;-69